Kearney, Arkansas
Current Conditions -  °F | °C
As of 11:53 PM on Tuesday 27 Jan 2015 (Local Time) from KLIT Reporting Station
Clear Clear  
Wind Chill: 38°   Ceiling: Unl
Heat Index: 42°   Visibility: 10mi
Dew Point: 34°   Wind: 6mph
Humidity: 73%   Direction: 80°E
Pressure: 30.19"   Gusts: NA
Location:  34.4462°N, 92.1621°W
Report Text: KLIT 280553Z 08005KT 10SM CLR 06/01 A3019 RMK AO2 SLP227 T00560011 10139 20056 402000039 52006
Loading
Personal Weather Stations






























Interactive Weather Map New forecast layout! Learn more

10-Day Weather Forecast

Advertisements
Track Severe Weather on mobile